Sevenpersons, Canada
Current Conditions -  °F | °C
As of 12:00 PM on Sunday 21 Dec 2014 (Local Time) from CYXH Reporting Station
Drizzle Drizzle  
Wind Chill: 29°   Ceiling: 5500
Heat Index: 36°   Visibility: 15mi
Dew Point: 34°   Wind: 8mph
Humidity: 93%   Direction: 250°WSW
Pressure: 29.26"   Gusts: NA
Location:  49.87°N, 110.9°W
Report Text: CYXH 211900Z 25007KT 15SM -DZ BKN055 02/01 A2926 RMK SC7 SLP934
Loading
Personal Weather Stations






























Interactive Weather Map New forecast layout! Learn more

10-Day Weather Forecast

Advertisements
Track Severe Weather on mobile